sensor_id;sensor_type;location;lat;lon;timestamp;pressure;altitude;pressure_sealevel;temperature;humidity
70343;BME280;57767;42.068;24.752;2023-01-26T00:00:31;99703.13;;;2.68;66.70
70343;BME280;57767;42.068;24.752;2023-01-26T00:01:33;99716.59;;;2.73;66.73
70343;BME280;57767;42.068;24.752;2023-01-26T00:02:35;99714.44;;;2.78;66.77
70343;BME280;57767;42.068;24.752;2023-01-26T00:03:37;99723.47;;;2.84;66.70
70343;BME280;57767;42.068;24.752;2023-01-26T00:04:39;99726.50;;;2.89;66.44
70343;BME280;57767;42.068;24.752;2023-01-26T00:05:41;99708.38;;;2.78;66.76
70343;BME280;57767;42.068;24.752;2023-01-26T00:06:43;99716.88;;;2.90;66.34
70343;BME280;57767;42.068;24.752;2023-01-26T00:07:44;99712.34;;;2.92;66.32
70343;BME280;57767;42.068;24.752;2023-01-26T00:08:51;99715.50;;;2.95;66.39
70343;BME280;57767;42.068;24.752;2023-01-26T00:09:53;99704.38;;;2.93;66.68
70343;BME280;57767;42.068;24.752;2023-01-26T00:10:55;99697.22;;;2.95;65.98
70343;BME280;57767;42.068;24.752;2023-01-26T00:11:57;99692.00;;;2.95;65.61
70343;BME280;57767;42.068;24.752;2023-01-26T00:12:59;99687.75;;;2.94;66.06
70343;BME280;57767;42.068;24.752;2023-01-26T00:14:00;99690.66;;;3.01;65.26
70343;BME280;57767;42.068;24.752;2023-01-26T00:15:02;99687.22;;;3.00;65.73
70343;BME280;57767;42.068;24.752;2023-01-26T00:16:09;99678.84;;;2.97;65.32
70343;BME280;57767;42.068;24.752;2023-01-26T00:17:11;99675.81;;;3.01;65.00
70343;BME280;57767;42.068;24.752;2023-01-26T00:18:13;99683.34;;;3.04;65.73
70343;BME280;57767;42.068;24.752;2023-01-26T00:19:15;99673.91;;;3.03;64.85
70343;BME280;57767;42.068;24.752;2023-01-26T00:20:17;99677.16;;;3.05;64.71
70343;BME280;57767;42.068;24.752;2023-01-26T00:21:21;99674.88;;;3.02;64.41
70343;BME280;57767;42.068;24.752;2023-01-26T00:22:25;99674.31;;;2.99;64.02
70343;BME280;57767;42.068;24.752;2023-01-26T00:23:30;99673.50;;;2.98;64.62
70343;BME280;57767;42.068;24.752;2023-01-26T00:24:32;99665.94;;;2.95;64.57
70343;BME280;57767;42.068;24.752;2023-01-26T00:25:37;99669.22;;;2.97;64.54
70343;BME280;57767;42.068;24.752;2023-01-26T00:26:40;99666.38;;;2.91;64.74
70343;BME280;57767;42.068;24.752;2023-01-26T00:27:42;99666.06;;;2.94;64.74
70343;BME280;57767;42.068;24.752;2023-01-26T00:28:44;99668.81;;;2.92;64.44
70343;BME280;57767;42.068;24.752;2023-01-26T00:29:46;99674.59;;;2.96;64.13
70343;BME280;57767;42.068;24.752;2023-01-26T00:30:48;99677.06;;;2.97;64.05
70343;BME280;57767;42.068;24.752;2023-01-26T00:31:49;99672.94;;;2.95;64.49
70343;BME280;57767;42.068;24.752;2023-01-26T00:32:51;99682.00;;;3.00;64.90
70343;BME280;57767;42.068;24.752;2023-01-26T00:33:54;99684.88;;;2.97;65.26
70343;BME280;57767;42.068;24.752;2023-01-26T00:34:56;99684.06;;;2.97;65.53
70343;BME280;57767;42.068;24.752;2023-01-26T00:35:58;99672.78;;;2.96;65.07
70343;BME280;57767;42.068;24.752;2023-01-26T00:37:00;99676.38;;;2.95;64.91
70343;BME280;57767;42.068;24.752;2023-01-26T00:38:03;99672.78;;;2.96;64.57
70343;BME280;57767;42.068;24.752;2023-01-26T00:39:05;99665.78;;;2.97;64.50
70343;BME280;57767;42.068;24.752;2023-01-26T00:40:07;99657.56;;;2.92;64.71
70343;BME280;57767;42.068;24.752;2023-01-26T00:41:10;99662.50;;;2.95;64.89
70343;BME280;57767;42.068;24.752;2023-01-26T00:42:30;99653.16;;;2.92;65.62
70343;BME280;57767;42.068;24.752;2023-01-26T00:43:32;99670.06;;;2.98;66.13
70343;BME280;57767;42.068;24.752;2023-01-26T00:44:37;99663.59;;;2.92;66.01
70343;BME280;57767;42.068;24.752;2023-01-26T00:45:39;99666.63;;;2.97;66.09
70343;BME280;57767;42.068;24.752;2023-01-26T00:46:41;99673.22;;;3.01;66.67
70343;BME280;57767;42.068;24.752;2023-01-26T00:47:43;99669.09;;;2.99;66.54
70343;BME280;57767;42.068;24.752;2023-01-26T00:48:45;99666.06;;;3.03;66.55
70343;BME280;57767;42.068;24.752;2023-01-26T00:49:47;99666.06;;;3.03;66.84
70343;BME280;57767;42.068;24.752;2023-01-26T00:50:52;99670.31;;;3.04;66.39
70343;BME280;57767;42.068;24.752;2023-01-26T00:51:54;99669.34;;;3.05;66.99
70343;BME280;57767;42.068;24.752;2023-01-26T00:52:56;99670.31;;;3.04;66.51
70343;BME280;57767;42.068;24.752;2023-01-26T00:53:58;99666.91;;;3.04;66.66
70343;BME280;57767;42.068;24.752;2023-01-26T00:54:59;99661.69;;;3.04;66.06
70343;BME280;57767;42.068;24.752;2023-01-26T00:56:01;99655.47;;;3.05;66.63
70343;BME280;57767;42.068;24.752;2023-01-26T00:57:03;99651.53;;;3.01;67.05
70343;BME280;57767;42.068;24.752;2023-01-26T00:58:06;99651.91;;;3.06;67.09
70343;BME280;57767;42.068;24.752;2023-01-26T00:59:08;99657.25;;;3.04;66.76
70343;BME280;57767;42.068;24.752;2023-01-26T01:00:10;99647.13;;;3.01;66.61
70343;BME280;57767;42.068;24.752;2023-01-26T01:01:17;99640.25;;;3.00;66.20
70343;BME280;57767;42.068;24.752;2023-01-26T01:02:18;99643.13;;;2.97;66.76
70343;BME280;57767;42.068;24.752;2023-01-26T01:03:21;99661.09;;;3.10;66.95
70343;BME280;57767;42.068;24.752;2023-01-26T01:04:22;99654.50;;;3.06;66.36
70343;BME280;57767;42.068;24.752;2023-01-26T01:05:26;99666.19;;;3.11;66.00
70343;BME280;57767;42.068;24.752;2023-01-26T01:06:28;99662.19;;;3.07;65.62
70343;BME280;57767;42.068;24.752;2023-01-26T01:07:30;99666.47;;;3.08;65.37
70343;BME280;57767;42.068;24.752;2023-01-26T01:08:32;99662.19;;;3.07;65.43
70343;BME280;57767;42.068;24.752;2023-01-26T01:09:33;99661.09;;;3.10;65.90
70343;BME280;57767;42.068;24.752;2023-01-26T01:10:35;99658.63;;;3.08;65.46
70343;BME280;57767;42.068;24.752;2023-01-26T01:11:37;99651.09;;;3.05;66.07
70343;BME280;57767;42.068;24.752;2023-01-26T01:12:39;99653.41;;;3.08;65.75
70343;BME280;57767;42.068;24.752;2023-01-26T01:13:41;99653.41;;;3.08;66.14
70343;BME280;57767;42.068;24.752;2023-01-26T01:14:42;99653.41;;;3.08;66.10
70343;BME280;57767;42.068;24.752;2023-01-26T01:15:44;99648.19;;;3.08;65.97
70343;BME280;57767;42.068;24.752;2023-01-26T01:16:46;99636.69;;;3.01;66.04
70343;BME280;57767;42.068;24.752;2023-01-26T01:17:48;99650.66;;;3.10;66.20
70343;BME280;57767;42.068;24.752;2023-01-26T01:18:55;99645.59;;;3.08;65.90
70343;BME280;57767;42.068;24.752;2023-01-26T01:19:57;99649.56;;;3.12;65.86
70343;BME280;57767;42.068;24.752;2023-01-26T01:20:59;99647.91;;;3.11;65.60
70343;BME280;57767;42.068;24.752;2023-01-26T01:22:01;99648.75;;;3.12;65.40
70343;BME280;57767;42.068;24.752;2023-01-26T01:23:02;99630.66;;;3.01;65.43
70343;BME280;57767;42.068;24.752;2023-01-26T01:24:04;99649.72;;;3.11;65.70
70343;BME280;57767;42.068;24.752;2023-01-26T01:25:07;99643.94;;;3.07;65.45
70343;BME280;57767;42.068;24.752;2023-01-26T01:26:09;99641.06;;;3.10;65.49
70343;BME280;57767;42.068;24.752;2023-01-26T01:27:11;99631.72;;;3.08;65.54
70343;BME280;57767;42.068;24.752;2023-01-26T01:28:12;99630.38;;;3.04;66.28
70343;BME280;57767;42.068;24.752;2023-01-26T01:29:14;99638.59;;;3.09;65.86
70343;BME280;57767;42.068;24.752;2023-01-26T01:30:16;99640.22;;;3.10;66.07
70343;BME280;57767;42.068;24.752;2023-01-26T01:31:18;99642.97;;;3.08;66.44
70343;BME280;57767;42.068;24.752;2023-01-26T01:32:20;99636.38;;;3.04;66.60
70343;BME280;57767;42.068;24.752;2023-01-26T01:33:22;99645.59;;;3.08;66.62
70343;BME280;57767;42.068;24.752;2023-01-26T01:34:24;99632.00;;;3.05;66.27
70343;BME280;57767;42.068;24.752;2023-01-26T01:35:26;99638.59;;;3.09;67.05
70343;BME280;57767;42.068;24.752;2023-01-26T01:36:28;99646.28;;;3.10;66.13
70343;BME280;57767;42.068;24.752;2023-01-26T01:37:31;99635.84;;;3.10;66.84
70343;BME280;57767;42.068;24.752;2023-01-26T01:38:34;99625.69;;;3.07;66.49
70343;BME280;57767;42.068;24.752;2023-01-26T01:39:35;99621.97;;;3.10;66.82
70343;BME280;57767;42.068;24.752;2023-01-26T01:40:42;99621.84;;;3.11;66.02
70343;BME280;57767;42.068;24.752;2023-01-26T01:41:44;99622.38;;;3.05;66.39
70343;BME280;57767;42.068;24.752;2023-01-26T01:42:47;99640.91;;;3.12;66.18
70343;BME280;57767;42.068;24.752;2023-01-26T01:43:50;99632.28;;;3.11;67.05
70343;BME280;57767;42.068;24.752;2023-01-26T01:46:31;99607.84;;;3.03;67.06
70343;BME280;57767;42.068;24.752;2023-01-26T01:47:34;99613.59;;;3.06;67.00
70343;BME280;57767;42.068;24.752;2023-01-26T01:49:32;99597.97;;;2.97;67.43
70343;BME280;57767;42.068;24.752;2023-01-26T01:50:16;99611.13;;;3.05;67.99
70343;BME280;57767;42.068;24.752;2023-01-26T01:52:36;99607.59;;;2.96;68.65
70343;BME280;57767;42.068;24.752;2023-01-26T01:53:41;99606.06;;;2.94;68.52
70343;BME280;57767;42.068;24.752;2023-01-26T01:55:02;99609.22;;;2.97;68.91
70343;BME280;57767;42.068;24.752;2023-01-26T01:56:11;99610.31;;;2.95;69.05
70343;BME280;57767;42.068;24.752;2023-01-26T01:57:23;99611.84;;;2.97;69.40
70343;BME280;57767;42.068;24.752;2023-01-26T01:58:30;99598.09;;;2.95;69.13
70343;BME280;57767;42.068;24.752;2023-01-26T01:59:34;99591.38;;;2.93;69.54
70343;BME280;57767;42.068;24.752;2023-01-26T02:00:35;99599.50;;;2.90;70.04
70343;BME280;57767;42.068;24.752;2023-01-26T02:01:37;99591.13;;;2.86;70.09
70343;BME280;57767;42.068;24.752;2023-01-26T02:02:40;99595.53;;;2.85;70.62
70343;BME280;57767;42.068;24.752;2023-01-26T02:03:44;99598.28;;;2.84;70.66
70343;BME280;57767;42.068;24.752;2023-01-26T02:04:47;99598.28;;;2.84;70.98
70343;BME280;57767;42.068;24.752;2023-01-26T02:07:00;99581.84;;;2.64;71.34
70343;BME280;57767;42.068;24.752;2023-01-26T02:08:03;99599.00;;;2.76;71.50
70343;BME280;57767;42.068;24.752;2023-01-26T02:09:06;99595.69;;;2.74;71.34
70343;BME280;57767;42.068;24.752;2023-01-26T02:10:09;99590.63;;;2.73;71.30
70343;BME280;57767;42.068;24.752;2023-01-26T02:11:39;99595.81;;;2.73;72.15
70343;BME280;57767;42.068;24.752;2023-01-26T02:12:42;99597.75;;;2.71;71.44
70343;BME280;57767;42.068;24.752;2023-01-26T02:13:46;99601.31;;;2.70;72.30
70343;BME280;57767;42.068;24.752;2023-01-26T02:14:51;99578.97;;;2.58;71.87
70343;BME280;57767;42.068;24.752;2023-01-26T02:15:53;99598.31;;;2.65;71.92
70343;BME280;57767;42.068;24.752;2023-01-26T02:16:55;99589.81;;;2.63;72.44
70343;BME280;57767;42.068;24.752;2023-01-26T02:17:58;99590.91;;;2.60;72.35
70343;BME280;57767;42.068;24.752;2023-01-26T02:19:03;99601.88;;;2.64;72.57
70343;BME280;57767;42.068;24.752;2023-01-26T02:21:29;99602.03;;;2.62;72.30
70343;BME280;57767;42.068;24.752;2023-01-26T02:24:44;99590.22;;;2.58;72.99
70343;BME280;57767;42.068;24.752;2023-01-26T02:26:52;99583.25;;;2.49;73.20
70343;BME280;57767;42.068;24.752;2023-01-26T02:27:55;99590.47;;;2.55;72.96
70343;BME280;57767;42.068;24.752;2023-01-26T02:28:57;99587.06;;;2.55;73.16
70343;BME280;57767;42.068;24.752;2023-01-26T02:30:01;99581.31;;;2.51;73.33
70343;BME280;57767;42.068;24.752;2023-01-26T02:31:04;99582.41;;;2.58;73.02
70343;BME280;57767;42.068;24.752;2023-01-26T02:32:06;99583.22;;;2.59;73.08
70343;BME280;57767;42.068;24.752;2023-01-26T02:33:17;99573.88;;;2.56;73.15
70343;BME280;57767;42.068;24.752;2023-01-26T02:34:19;99570.47;;;2.56;72.95
70343;BME280;57767;42.068;24.752;2023-01-26T02:35:21;99576.78;;;2.63;73.43
70343;BME280;57767;42.068;24.752;2023-01-26T02:36:28;99583.50;;;2.65;72.75
70343;BME280;57767;42.068;24.752;2023-01-26T02:37:31;99573.91;;;2.66;73.18
70343;BME280;57767;42.068;24.752;2023-01-26T02:38:41;99578.66;;;2.70;72.34
70343;BME280;57767;42.068;24.752;2023-01-26T02:39:46;99576.06;;;2.70;72.93
70343;BME280;57767;42.068;24.752;2023-01-26T02:40:56;99569.75;;;2.73;72.27
70343;BME280;57767;42.068;24.752;2023-01-26T02:41:59;99563.72;;;2.72;71.62
70343;BME280;57767;42.068;24.752;2023-01-26T02:43:22;99561.50;;;2.68;72.11
70343;BME280;57767;42.068;24.752;2023-01-26T02:44:25;99561.81;;;2.65;71.95
70343;BME280;57767;42.068;24.752;2023-01-26T02:45:28;99558.91;;;2.68;71.67
70343;BME280;57767;42.068;24.752;2023-01-26T02:46:30;99547.00;;;2.65;72.17
70343;BME280;57767;42.068;24.752;2023-01-26T02:47:32;99556.03;;;2.71;72.39
70343;BME280;57767;42.068;24.752;2023-01-26T02:48:34;99556.03;;;2.71;71.89
70343;BME280;57767;42.068;24.752;2023-01-26T02:49:54;99554.09;;;2.73;71.51
70343;BME280;57767;42.068;24.752;2023-01-26T02:50:58;99560.69;;;2.77;71.66
70343;BME280;57767;42.068;24.752;2023-01-26T02:52:00;99563.44;;;2.75;72.15
70343;BME280;57767;42.068;24.752;2023-01-26T02:53:02;99558.91;;;2.77;72.16
70343;BME280;57767;42.068;24.752;2023-01-26T02:54:04;99557.13;;;2.78;71.57
70343;BME280;57767;42.068;24.752;2023-01-26T02:55:07;99555.47;;;2.77;71.69
70343;BME280;57767;42.068;24.752;2023-01-26T02:56:25;99557.50;;;2.83;71.37
70343;BME280;57767;42.068;24.752;2023-01-26T02:57:27;99542.44;;;2.77;71.08
70343;BME280;57767;42.068;24.752;2023-01-26T02:58:29;99553.94;;;2.84;71.26
70343;BME280;57767;42.068;24.752;2023-01-26T02:59:30;99555.44;;;2.86;70.65
70343;BME280;57767;42.068;24.752;2023-01-26T03:00:34;99554.91;;;2.83;70.56
70343;BME280;57767;42.068;24.752;2023-01-26T03:01:37;99550.38;;;2.85;70.44
70343;BME280;57767;42.068;24.752;2023-01-26T03:02:40;99556.13;;;2.88;70.59
70343;BME280;57767;42.068;24.752;2023-01-26T03:03:42;99557.09;;;2.87;70.62
70343;BME280;57767;42.068;24.752;2023-01-26T03:04:45;99555.03;;;2.81;70.79
70343;BME280;57767;42.068;24.752;2023-01-26T03:05:47;99553.66;;;2.87;70.96
70343;BME280;57767;42.068;24.752;2023-01-26T03:06:49;99551.06;;;2.87;70.64
70343;BME280;57767;42.068;24.752;2023-01-26T03:07:51;99552.69;;;2.88;70.63
70343;BME280;57767;42.068;24.752;2023-01-26T03:08:53;99540.22;;;2.82;71.03
70343;BME280;57767;42.068;24.752;2023-01-26T03:09:54;99552.00;;;2.86;70.21
70343;BME280;57767;42.068;24.752;2023-01-26T03:10:56;99551.88;;;2.87;70.44
70343;BME280;57767;42.068;24.752;2023-01-26T03:11:58;99546.53;;;2.89;69.79
70343;BME280;57767;42.068;24.752;2023-01-26T03:13:00;99546.53;;;2.89;70.23
70343;BME280;57767;42.068;24.752;2023-01-26T03:14:01;99543.91;;;2.89;70.19
70343;BME280;57767;42.068;24.752;2023-01-26T03:15:06;99542.00;;;2.91;70.27
70343;BME280;57767;42.068;24.752;2023-01-26T03:16:26;99538.97;;;2.86;70.50
70343;BME280;57767;42.068;24.752;2023-01-26T03:17:28;99541.44;;;2.87;70.68
70343;BME280;57767;42.068;24.752;2023-01-26T03:18:30;99534.44;;;2.88;69.94
70343;BME280;57767;42.068;24.752;2023-01-26T03:19:50;99531.44;;;2.83;69.83
70343;BME280;57767;42.068;24.752;2023-01-26T03:21:13;99523.59;;;2.83;69.80
70343;BME280;57767;42.068;24.752;2023-01-26T03:22:34;99534.31;;;2.90;69.98
70343;BME280;57767;42.068;24.752;2023-01-26T03:24:14;99529.59;;;2.93;70.52
70343;BME280;57767;42.068;24.752;2023-01-26T03:25:35;99533.34;;;2.91;69.74
70343;BME280;57767;42.068;24.752;2023-01-26T03:26:56;99533.47;;;2.89;70.63
70343;BME280;57767;42.068;24.752;2023-01-26T03:28:16;99542.78;;;2.92;70.22
70343;BME280;57767;42.068;24.752;2023-01-26T03:29:23;99520.16;;;2.82;70.10
70343;BME280;57767;42.068;24.752;2023-01-26T03:30:27;99536.78;;;2.91;70.68
70343;BME280;57767;42.068;24.752;2023-01-26T03:31:28;99532.34;;;2.92;71.03
70343;BME280;57767;42.068;24.752;2023-01-26T03:32:30;99526.63;;;2.88;71.14
70343;BME280;57767;42.068;24.752;2023-01-26T03:33:32;99527.03;;;2.83;70.68
70343;BME280;57767;42.068;24.752;2023-01-26T03:34:34;99521.56;;;2.77;71.56
70343;BME280;57767;42.068;24.752;2023-01-26T03:35:35;99512.38;;;2.73;71.79
70343;BME280;57767;42.068;24.752;2023-01-26T03:36:37;99504.88;;;2.60;72.14
70343;BME280;57767;42.068;24.752;2023-01-26T03:37:42;99517.91;;;2.60;71.67
70343;BME280;57767;42.068;24.752;2023-01-26T03:38:44;99514.66;;;2.48;72.47
70343;BME280;57767;42.068;24.752;2023-01-26T03:39:46;99502.28;;;2.41;72.66
70343;BME280;57767;42.068;24.752;2023-01-26T03:41:06;99500.00;;;2.38;72.98
70343;BME280;57767;42.068;24.752;2023-01-26T03:42:27;99507.22;;;2.44;72.52
70343;BME280;57767;42.068;24.752;2023-01-26T03:43:47;99502.28;;;2.41;72.76
70343;BME280;57767;42.068;24.752;2023-01-26T03:45:08;99489.56;;;2.28;73.04
70343;BME280;57767;42.068;24.752;2023-01-26T03:46:28;99486.94;;;2.28;73.41
70343;BME280;57767;42.068;24.752;2023-01-26T03:47:49;99496.56;;;2.37;73.36
70343;BME280;57767;42.068;24.752;2023-01-26T03:49:09;99493.00;;;2.38;73.46
70343;BME280;57767;42.068;24.752;2023-01-26T03:50:30;99492.31;;;2.36;73.77
70343;BME280;57767;42.068;24.752;2023-01-26T03:51:50;99488.31;;;2.32;73.93
70343;BME280;57767;42.068;24.752;2023-01-26T03:53:15;99479.31;;;2.27;73.95
70343;BME280;57767;42.068;24.752;2023-01-26T03:54:36;99484.22;;;2.20;74.04
70343;BME280;57767;42.068;24.752;2023-01-26T03:55:57;99483.00;;;2.24;74.58
70343;BME280;57767;42.068;24.752;2023-01-26T03:57:17;99481.09;;;2.26;74.81
70343;BME280;57767;42.068;24.752;2023-01-26T03:58:19;99485.88;;;2.21;74.33
70343;BME280;57767;42.068;24.752;2023-01-26T03:59:20;99477.25;;;2.21;74.75
70343;BME280;57767;42.068;24.752;2023-01-26T04:00:38;99469.28;;;2.22;74.60
70343;BME280;57767;42.068;24.752;2023-01-26T04:01:43;99479.56;;;2.24;74.78
70343;BME280;57767;42.068;24.752;2023-01-26T04:03:04;99471.78;;;2.14;74.81
70343;BME280;57767;42.068;24.752;2023-01-26T04:04:25;99479.72;;;2.12;75.13
70343;BME280;57767;42.068;24.752;2023-01-26T04:05:45;99472.03;;;2.11;74.87
70343;BME280;57767;42.068;24.752;2023-01-26T04:07:17;99461.91;;;2.08;75.03
70343;BME280;57767;42.068;24.752;2023-01-26T04:08:37;99460.25;;;2.07;75.31
70343;BME280;57767;42.068;24.752;2023-01-26T04:09:39;99471.78;;;2.14;74.92
70343;BME280;57767;42.068;24.752;2023-01-26T04:10:41;99467.09;;;2.17;75.05
70343;BME280;57767;42.068;24.752;2023-01-26T04:11:42;99466.94;;;2.19;75.25
70343;BME280;57767;42.068;24.752;2023-01-26T04:12:44;99470.94;;;2.23;74.65
70343;BME280;57767;42.068;24.752;2023-01-26T04:13:49;99474.38;;;2.24;74.84
70343;BME280;57767;42.068;24.752;2023-01-26T04:15:09;99433.13;;;2.00;74.34
70343;BME280;57767;42.068;24.752;2023-01-26T04:16:30;99453.25;;;2.07;74.57
70343;BME280;57767;42.068;24.752;2023-01-26T04:17:50;99432.44;;;1.98;74.52
70343;BME280;57767;42.068;24.752;2023-01-26T04:19:11;99471.09;;;2.12;74.25
70343;BME280;57767;42.068;24.752;2023-01-26T04:20:31;99470.53;;;2.18;74.25
70343;BME280;57767;42.068;24.752;2023-01-26T04:21:52;99464.34;;;2.19;73.78
70343;BME280;57767;42.068;24.752;2023-01-26T04:22:54;99449.97;;;2.15;73.88
70343;BME280;57767;42.068;24.752;2023-01-26T04:23:56;99455.47;;;2.12;73.96
70343;BME280;57767;42.068;24.752;2023-01-26T04:24:58;99451.34;;;2.09;73.57
70343;BME280;57767;42.068;24.752;2023-01-26T04:26:00;99450.94;;;2.14;73.62
70343;BME280;57767;42.068;24.752;2023-01-26T04:27:02;99454.19;;;2.16;74.02
70343;BME280;57767;42.068;24.752;2023-01-26T04:28:04;99442.94;;;2.15;73.48
70343;BME280;57767;42.068;24.752;2023-01-26T04:29:08;99452.28;;;2.18;73.51
70343;BME280;57767;42.068;24.752;2023-01-26T04:30:12;99453.66;;;2.22;73.58
70343;BME280;57767;42.068;24.752;2023-01-26T04:31:14;99452.16;;;2.20;73.49
70343;BME280;57767;42.068;24.752;2023-01-26T04:32:16;99450.38;;;2.20;73.37
70343;BME280;57767;42.068;24.752;2023-01-26T04:33:18;99446.09;;;2.19;73.59
70343;BME280;57767;42.068;24.752;2023-01-26T04:34:20;99432.00;;;2.12;73.44
70343;BME280;57767;42.068;24.752;2023-01-26T04:35:22;99446.38;;;2.26;73.75
70343;BME280;57767;42.068;24.752;2023-01-26T04:36:24;99438.97;;;2.21;73.45
70343;BME280;57767;42.068;24.752;2023-01-26T04:37:26;99448.69;;;2.29;73.22
70343;BME280;57767;42.068;24.752;2023-01-26T04:38:28;99423.63;;;2.18;73.20
70343;BME280;57767;42.068;24.752;2023-01-26T04:39:29;99434.19;;;2.26;73.05
70343;BME280;57767;42.068;24.752;2023-01-26T04:40:31;99432.41;;;2.27;73.15
70343;BME280;57767;42.068;24.752;2023-01-26T04:41:33;99445.66;;;2.33;72.96
70343;BME280;57767;42.068;24.752;2023-01-26T04:42:35;99443.88;;;2.34;72.82
70343;BME280;57767;42.068;24.752;2023-01-26T04:43:37;99443.75;;;2.35;72.80
70343;BME280;57767;42.068;24.752;2023-01-26T04:44:39;99447.72;;;2.39;72.99
70343;BME280;57767;42.068;24.752;2023-01-26T04:45:40;99444.00;;;2.42;72.79
70343;BME280;57767;42.068;24.752;2023-01-26T04:46:42;99441.94;;;2.45;72.65
70343;BME280;57767;42.068;24.752;2023-01-26T04:47:44;99446.47;;;2.43;72.94
70343;BME280;57767;42.068;24.752;2023-01-26T04:48:46;99442.75;;;2.46;73.25
70343;BME280;57767;42.068;24.752;2023-01-26T04:49:48;99441.94;;;2.45;73.39
70343;BME280;57767;42.068;24.752;2023-01-26T04:50:58;99450.44;;;2.47;73.01
70343;BME280;57767;42.068;24.752;2023-01-26T04:52:00;99433.06;;;2.38;72.96
70343;BME280;57767;42.068;24.752;2023-01-26T04:53:02;99447.56;;;2.41;72.87
70343;BME280;57767;42.068;24.752;2023-01-26T04:54:04;99451.28;;;2.38;72.08
70343;BME280;57767;42.068;24.752;2023-01-26T04:55:06;99450.88;;;2.33;72.50
70343;BME280;57767;42.068;24.752;2023-01-26T04:56:18;99442.69;;;2.19;73.20
70343;BME280;57767;42.068;24.752;2023-01-26T04:57:21;99438.19;;;2.11;72.74
70343;BME280;57767;42.068;24.752;2023-01-26T04:58:25;99447.50;;;2.13;73.05
70343;BME280;57767;42.068;24.752;2023-01-26T04:59:27;99445.59;;;2.06;73.27
70343;BME280;57767;42.068;24.752;2023-01-26T05:00:29;99449.84;;;2.07;73.76
70343;BME280;57767;42.068;24.752;2023-01-26T05:01:31;99446.28;;;2.08;73.56
70343;BME280;57767;42.068;24.752;2023-01-26T05:02:33;99452.16;;;2.10;73.36
70343;BME280;57767;42.068;24.752;2023-01-26T05:03:34;99451.91;;;2.13;73.79
70343;BME280;57767;42.068;24.752;2023-01-26T05:04:36;99445.44;;;2.17;74.21
70343;BME280;57767;42.068;24.752;2023-01-26T05:05:38;99445.16;;;2.20;73.85
70343;BME280;57767;42.068;24.752;2023-01-26T05:06:40;99445.84;;;2.22;73.93
70343;BME280;57767;42.068;24.752;2023-01-26T05:07:45;99443.91;;;2.24;73.65
70343;BME280;57767;42.068;24.752;2023-01-26T05:08:50;99448.03;;;2.27;74.12
70343;BME280;57767;42.068;24.752;2023-01-26T05:09:52;99445.56;;;2.25;74.50
70343;BME280;57767;42.068;24.752;2023-01-26T05:10:54;99441.31;;;2.24;74.47
70343;BME280;57767;42.068;24.752;2023-01-26T05:11:56;99443.66;;;2.27;74.23
70343;BME280;57767;42.068;24.752;2023-01-26T05:13:17;99442.97;;;2.25;73.96
70343;BME280;57767;42.068;24.752;2023-01-26T05:14:19;99441.44;;;2.23;73.94
70343;BME280;57767;42.068;24.752;2023-01-26T05:15:21;99443.22;;;2.22;73.71
70343;BME280;57767;42.068;24.752;2023-01-26T05:16:23;99437.09;;;2.13;73.74
70343;BME280;57767;42.068;24.752;2023-01-26T05:17:25;99436.78;;;2.16;73.17
70343;BME280;57767;42.068;24.752;2023-01-26T05:18:27;99437.59;;;2.17;73.74
70343;BME280;57767;42.068;24.752;2023-01-26T05:19:29;99439.13;;;2.20;74.04
70343;BME280;57767;42.068;24.752;2023-01-26T05:20:31;99440.63;;;2.22;73.82
70343;BME280;57767;42.068;24.752;2023-01-26T05:21:33;99438.03;;;2.22;73.93
70343;BME280;57767;42.068;24.752;2023-01-26T05:22:34;99439.53;;;2.25;74.04
70343;BME280;57767;42.068;24.752;2023-01-26T05:23:36;99437.63;;;2.27;73.65
70343;BME280;57767;42.068;24.752;2023-01-26T05:24:38;99430.31;;;2.30;73.85
70343;BME280;57767;42.068;24.752;2023-01-26T05:25:40;99436.91;;;2.34;73.84
70343;BME280;57767;42.068;24.752;2023-01-26T05:26:42;99435.13;;;2.35;73.82
70343;BME280;57767;42.068;24.752;2023-01-26T05:27:45;99434.28;;;2.34;73.37
70343;BME280;57767;42.068;24.752;2023-01-26T05:28:47;99422.81;;;2.27;73.51
70343;BME280;57767;42.068;24.752;2023-01-26T05:29:49;99423.88;;;2.34;73.74
70343;BME280;57767;42.068;24.752;2023-01-26T05:30:51;99419.63;;;2.33;73.73
70343;BME280;57767;42.068;24.752;2023-01-26T05:31:53;99420.44;;;2.34;73.65
70343;BME280;57767;42.068;24.752;2023-01-26T05:33:13;99421.81;;;2.28;73.79
70343;BME280;57767;42.068;24.752;2023-01-26T05:34:15;99417.97;;;2.32;73.63
70343;BME280;57767;42.068;24.752;2023-01-26T05:35:17;99422.50;;;2.30;73.72
70343;BME280;57767;42.068;24.752;2023-01-26T05:36:19;99424.13;;;2.31;73.60
70343;BME280;57767;42.068;24.752;2023-01-26T05:37:23;99420.03;;;2.29;73.45
70343;BME280;57767;42.068;24.752;2023-01-26T05:38:25;99420.84;;;2.29;73.26
70343;BME280;57767;42.068;24.752;2023-01-26T05:39:27;99412.94;;;2.21;73.86
70343;BME280;57767;42.068;24.752;2023-01-26T05:40:28;99421.03;;;2.18;73.92
70343;BME280;57767;42.068;24.752;2023-01-26T05:41:30;99417.59;;;2.17;74.34
70343;BME280;57767;42.068;24.752;2023-01-26T05:42:32;99399.69;;;1.95;74.48
70343;BME280;57767;42.068;24.752;2023-01-26T05:43:33;99415.72;;;2.00;74.36
70343;BME280;57767;42.068;24.752;2023-01-26T05:44:35;99418.84;;;2.04;74.59
70343;BME280;57767;42.068;24.752;2023-01-26T05:45:38;99409.97;;;1.97;74.72
70343;BME280;57767;42.068;24.752;2023-01-26T05:46:40;99412.28;;;2.00;74.95
70343;BME280;57767;42.068;24.752;2023-01-26T05:47:43;99420.94;;;2.00;75.16
70343;BME280;57767;42.068;24.752;2023-01-26T05:48:45;99411.34;;;2.01;74.83
70343;BME280;57767;42.068;24.752;2023-01-26T05:49:47;99425.00;;;2.03;74.82
70343;BME280;57767;42.068;24.752;2023-01-26T05:50:48;99411.06;;;1.94;74.09
70343;BME280;57767;42.068;24.752;2023-01-26T05:51:50;99413.38;;;1.97;74.27
70343;BME280;57767;42.068;24.752;2023-01-26T05:52:52;99415.72;;;2.00;73.95
70343;BME280;57767;42.068;24.752;2023-01-26T05:53:54;99405.03;;;1.94;74.39